Terminal Aerodrome Forecast
Issued by NWS Grand Rapids, MI

Home | Current Version | Previous Version | Text Only | Print | Product List | Glossary On
Versions: 1 2 3 4 5 6 7 8 9 10 11 12 13
903
FTUS43 KGRR 241723
TAFGRR
TAF
KGRR 241723Z 2418/2518 27012G20KT P6SM OVC060
     FM241900 24010KT P6SM BKN050
     FM250000 04007KT P6SM VCSH OVC050
     FM250400 18008KT 4SM BR VCSH OVC015
     FM250900 04007KT 1 1/2SM -RA BR OVC003
     FM251100 06011KT 1/2SM -RA FG VV001=

USA.gov is the U.S. government's official web portal to all federal, state and local government web resources and services.